sensor_id;sensor_type;location;lat;lon;timestamp;temperature;humidity
54540;SHT30;40438;52.992;18.604;2024-02-16T00:00:54;9.69;96.81
54540;SHT30;40438;52.992;18.604;2024-02-16T00:03:20;9.69;96.83
54540;SHT30;40438;52.992;18.604;2024-02-16T00:05:46;9.72;96.69
54540;SHT30;40438;52.992;18.604;2024-02-16T00:08:12;9.69;96.54
54540;SHT30;40438;52.992;18.604;2024-02-16T00:10:37;9.70;96.43
54540;SHT30;40438;52.992;18.604;2024-02-16T00:13:03;9.70;96.43
54540;SHT30;40438;52.992;18.604;2024-02-16T00:15:31;9.69;96.43
54540;SHT30;40438;52.992;18.604;2024-02-16T00:17:56;9.69;96.43
54540;SHT30;40438;52.992;18.604;2024-02-16T00:20:22;9.72;96.41
54540;SHT30;40438;52.992;18.604;2024-02-16T00:22:48;9.72;96.30
54540;SHT30;40438;52.992;18.604;2024-02-16T00:25:14;9.72;96.27
54540;SHT30;40438;52.992;18.604;2024-02-16T00:27:39;9.67;96.12
54540;SHT30;40438;52.992;18.604;2024-02-16T00:30:06;9.69;96.06
54540;SHT30;40438;52.992;18.604;2024-02-16T00:32:34;9.62;96.06
54540;SHT30;40438;52.992;18.604;2024-02-16T00:34:59;9.66;95.95
54540;SHT30;40438;52.992;18.604;2024-02-16T00:37:25;9.67;96.04
54540;SHT30;40438;52.992;18.604;2024-02-16T00:39:51;9.73;95.94
54540;SHT30;40438;52.992;18.604;2024-02-16T00:42:17;9.69;95.90
54540;SHT30;40438;52.992;18.604;2024-02-16T00:44:42;9.69;95.96
54540;SHT30;40438;52.992;18.604;2024-02-16T00:47:08;9.65;95.99
54540;SHT30;40438;52.992;18.604;2024-02-16T00:49:35;9.66;96.02
54540;SHT30;40438;52.992;18.604;2024-02-16T00:52:01;9.69;95.92
54540;SHT30;40438;52.992;18.604;2024-02-16T00:54:27;9.67;96.01
54540;SHT30;40438;52.992;18.604;2024-02-16T00:56:53;9.66;96.06
54540;SHT30;40438;52.992;18.604;2024-02-16T00:59:19;9.72;95.91
54540;SHT30;40438;52.992;18.604;2024-02-16T01:01:45;9.67;95.92
54540;SHT30;40438;52.992;18.604;2024-02-16T01:04:11;9.69;95.95
54540;SHT30;40438;52.992;18.604;2024-02-16T01:06:38;9.67;95.98
54540;SHT30;40438;52.992;18.604;2024-02-16T01:09:04;9.69;95.98
54540;SHT30;40438;52.992;18.604;2024-02-16T01:11:29;9.69;95.98
54540;SHT30;40438;52.992;18.604;2024-02-16T01:13:55;9.69;96.00
54540;SHT30;40438;52.992;18.604;2024-02-16T01:16:21;9.70;96.02
54540;SHT30;40438;52.992;18.604;2024-02-16T01:18:47;9.70;96.00
54540;SHT30;40438;52.992;18.604;2024-02-16T01:21:12;9.69;95.98
54540;SHT30;40438;52.992;18.604;2024-02-16T01:23:40;9.69;95.96
54540;SHT30;40438;52.992;18.604;2024-02-16T01:26:05;9.69;95.95
54540;SHT30;40438;52.992;18.604;2024-02-16T01:28:31;9.69;95.94
54540;SHT30;40438;52.992;18.604;2024-02-16T01:30:57;9.69;95.91
54540;SHT30;40438;52.992;18.604;2024-02-16T01:33:22;9.70;95.91
54540;SHT30;40438;52.992;18.604;2024-02-16T01:35:48;9.67;95.90
54540;SHT30;40438;52.992;18.604;2024-02-16T01:38:14;9.67;95.89
54540;SHT30;40438;52.992;18.604;2024-02-16T01:40:41;9.67;95.83
54540;SHT30;40438;52.992;18.604;2024-02-16T01:43:07;9.63;95.88
54540;SHT30;40438;52.992;18.604;2024-02-16T01:45:33;9.67;95.82
54540;SHT30;40438;52.992;18.604;2024-02-16T01:47:58;9.65;95.81
54540;SHT30;40438;52.992;18.604;2024-02-16T01:50:24;9.66;95.79
54540;SHT30;40438;52.992;18.604;2024-02-16T01:52:50;9.63;95.79
54540;SHT30;40438;52.992;18.604;2024-02-16T01:55:16;9.63;95.73
54540;SHT30;40438;52.992;18.604;2024-02-16T01:57:45;9.61;95.69
54540;SHT30;40438;52.992;18.604;2024-02-16T02:00:12;9.59;95.65
54540;SHT30;40438;52.992;18.604;2024-02-16T02:02:38;9.54;95.69
54540;SHT30;40438;52.992;18.604;2024-02-16T02:05:04;9.54;95.70
54540;SHT30;40438;52.992;18.604;2024-02-16T02:07:30;9.51;95.71
54540;SHT30;40438;52.992;18.604;2024-02-16T02:09:56;9.51;95.68
54540;SHT30;40438;52.992;18.604;2024-02-16T02:12:22;9.51;95.71
54540;SHT30;40438;52.992;18.604;2024-02-16T02:14:49;9.49;95.73
54540;SHT30;40438;52.992;18.604;2024-02-16T02:17:15;9.48;95.78
54540;SHT30;40438;52.992;18.604;2024-02-16T02:19:41;9.44;95.80
54540;SHT30;40438;52.992;18.604;2024-02-16T02:22:13;9.45;95.81
54540;SHT30;40438;52.992;18.604;2024-02-16T02:24:39;9.39;95.80
54540;SHT30;40438;52.992;18.604;2024-02-16T02:27:05;9.38;95.76
54540;SHT30;40438;52.992;18.604;2024-02-16T02:29:31;9.38;95.77
54540;SHT30;40438;52.992;18.604;2024-02-16T02:31:56;9.38;95.68
54540;SHT30;40438;52.992;18.604;2024-02-16T02:34:22;9.38;95.61
54540;SHT30;40438;52.992;18.604;2024-02-16T02:36:48;9.35;95.62
54540;SHT30;40438;52.992;18.604;2024-02-16T02:39:15;9.35;95.56
54540;SHT30;40438;52.992;18.604;2024-02-16T02:41:41;9.34;95.48
54540;SHT30;40438;52.992;18.604;2024-02-16T02:44:07;9.37;95.29
54540;SHT30;40438;52.992;18.604;2024-02-16T02:46:32;9.34;95.09
54540;SHT30;40438;52.992;18.604;2024-02-16T02:48:58;9.32;95.15
54540;SHT30;40438;52.992;18.604;2024-02-16T02:51:24;9.32;95.04
54540;SHT30;40438;52.992;18.604;2024-02-16T02:53:49;9.27;95.05
54540;SHT30;40438;52.992;18.604;2024-02-16T02:56:17;9.24;95.02
54540;SHT30;40438;52.992;18.604;2024-02-16T02:58:42;9.21;94.91
54540;SHT30;40438;52.992;18.604;2024-02-16T03:01:08;9.23;94.88
54540;SHT30;40438;52.992;18.604;2024-02-16T03:03:34;9.20;94.90
54540;SHT30;40438;52.992;18.604;2024-02-16T03:06:00;9.18;94.86
54540;SHT30;40438;52.992;18.604;2024-02-16T03:08:26;9.16;94.71
54540;SHT30;40438;52.992;18.604;2024-02-16T03:10:51;9.16;94.53
54540;SHT30;40438;52.992;18.604;2024-02-16T03:13:18;9.18;94.16
54540;SHT30;40438;52.992;18.604;2024-02-16T03:15:44;9.17;93.87
54540;SHT30;40438;52.992;18.604;2024-02-16T03:18:10;9.13;93.99
54540;SHT30;40438;52.992;18.604;2024-02-16T03:20:36;9.10;93.98
54540;SHT30;40438;52.992;18.604;2024-02-16T03:23:02;9.03;94.06
54540;SHT30;40438;52.992;18.604;2024-02-16T03:25:28;9.08;93.97
54540;SHT30;40438;52.992;18.604;2024-02-16T03:27:54;9.07;93.87
54540;SHT30;40438;52.992;18.604;2024-02-16T03:30:21;9.08;93.64
54540;SHT30;40438;52.992;18.604;2024-02-16T03:32:47;9.03;93.89
54540;SHT30;40438;52.992;18.604;2024-02-16T03:35:13;9.06;93.87
54540;SHT30;40438;52.992;18.604;2024-02-16T03:37:39;9.07;93.61
54540;SHT30;40438;52.992;18.604;2024-02-16T03:40:06;9.00;93.78
54540;SHT30;40438;52.992;18.604;2024-02-16T03:42:32;9.01;93.79
54540;SHT30;40438;52.992;18.604;2024-02-16T03:44:57;9.03;93.72
54540;SHT30;40438;52.992;18.604;2024-02-16T03:47:24;8.99;93.73
54540;SHT30;40438;52.992;18.604;2024-02-16T03:49:51;9.00;93.62
54540;SHT30;40438;52.992;18.604;2024-02-16T03:52:17;8.99;93.50
54540;SHT30;40438;52.992;18.604;2024-02-16T03:54:42;8.97;93.59
54540;SHT30;40438;52.992;18.604;2024-02-16T03:57:08;8.92;93.75
54540;SHT30;40438;52.992;18.604;2024-02-16T03:59:34;8.96;93.75
54540;SHT30;40438;52.992;18.604;2024-02-16T04:02:00;8.90;93.88
54540;SHT30;40438;52.992;18.604;2024-02-16T04:04:27;8.89;93.90
54540;SHT30;40438;52.992;18.604;2024-02-16T04:06:53;8.90;93.97
54540;SHT30;40438;52.992;18.604;2024-02-16T04:09:19;8.89;93.93
54540;SHT30;40438;52.992;18.604;2024-02-16T04:11:45;8.90;93.81
54540;SHT30;40438;52.992;18.604;2024-02-16T04:14:11;8.89;93.79
54540;SHT30;40438;52.992;18.604;2024-02-16T04:16:36;8.83;93.98
54540;SHT30;40438;52.992;18.604;2024-02-16T04:19:02;8.83;94.08
54540;SHT30;40438;52.992;18.604;2024-02-16T04:21:29;8.85;94.09
54540;SHT30;40438;52.992;18.604;2024-02-16T04:23:55;8.81;93.94
54540;SHT30;40438;52.992;18.604;2024-02-16T04:26:21;8.81;93.96
54540;SHT30;40438;52.992;18.604;2024-02-16T04:28:47;8.79;93.94
54540;SHT30;40438;52.992;18.604;2024-02-16T04:31:12;8.80;93.94
54540;SHT30;40438;52.992;18.604;2024-02-16T04:33:38;8.77;94.00
54540;SHT30;40438;52.992;18.604;2024-02-16T04:36:06;8.77;93.96
54540;SHT30;40438;52.992;18.604;2024-02-16T04:38:33;8.73;94.11
54540;SHT30;40438;52.992;18.604;2024-02-16T04:40:59;8.76;93.92
54540;SHT30;40438;52.992;18.604;2024-02-16T04:43:25;8.70;94.12
54540;SHT30;40438;52.992;18.604;2024-02-16T04:45:50;8.80;93.91
54540;SHT30;40438;52.992;18.604;2024-02-16T04:48:16;8.83;93.73
54540;SHT30;40438;52.992;18.604;2024-02-16T04:50:42;8.76;93.84
54540;SHT30;40438;52.992;18.604;2024-02-16T04:53:08;8.77;93.84
54540;SHT30;40438;52.992;18.604;2024-02-16T04:55:35;8.76;93.82
54540;SHT30;40438;52.992;18.604;2024-02-16T04:58:00;8.73;93.97
54540;SHT30;40438;52.992;18.604;2024-02-16T05:00:26;8.75;93.84
54540;SHT30;40438;52.992;18.604;2024-02-16T05:02:52;8.66;94.01
54540;SHT30;40438;52.992;18.604;2024-02-16T05:05:18;8.63;94.09
54540;SHT30;40438;52.992;18.604;2024-02-16T05:07:47;8.63;94.17
54540;SHT30;40438;52.992;18.604;2024-02-16T05:10:14;8.66;93.90
54540;SHT30;40438;52.992;18.604;2024-02-16T05:12:42;8.67;93.93
54540;SHT30;40438;52.992;18.604;2024-02-16T05:15:08;8.67;93.83
54540;SHT30;40438;52.992;18.604;2024-02-16T05:17:34;8.62;93.85
54540;SHT30;40438;52.992;18.604;2024-02-16T05:19:59;8.55;93.95
54540;SHT30;40438;52.992;18.604;2024-02-16T05:22:25;8.56;93.78
54540;SHT30;40438;52.992;18.604;2024-02-16T05:24:51;8.57;93.77
54540;SHT30;40438;52.992;18.604;2024-02-16T05:27:17;8.63;93.67
54540;SHT30;40438;52.992;18.604;2024-02-16T05:29:45;8.56;93.55
54540;SHT30;40438;52.992;18.604;2024-02-16T05:32:10;8.56;93.51
54540;SHT30;40438;52.992;18.604;2024-02-16T05:34:36;8.48;93.60
54540;SHT30;40438;52.992;18.604;2024-02-16T05:37:02;8.52;93.47
54540;SHT30;40438;52.992;18.604;2024-02-16T05:39:28;8.48;93.35
54540;SHT30;40438;52.992;18.604;2024-02-16T05:41:53;8.44;93.46
54540;SHT30;40438;52.992;18.604;2024-02-16T05:44:19;8.45;93.28
54540;SHT30;40438;52.992;18.604;2024-02-16T05:46:47;8.42;93.43
54540;SHT30;40438;52.992;18.604;2024-02-16T05:49:12;8.49;93.18
54540;SHT30;40438;52.992;18.604;2024-02-16T05:51:38;8.41;93.33
54540;SHT30;40438;52.992;18.604;2024-02-16T05:54:04;8.38;93.31
54540;SHT30;40438;52.992;18.604;2024-02-16T05:56:30;8.41;93.18
54540;SHT30;40438;52.992;18.604;2024-02-16T05:58:55;8.38;93.25
54540;SHT30;40438;52.992;18.604;2024-02-16T06:01:21;8.38;93.32
54540;SHT30;40438;52.992;18.604;2024-02-16T06:03:48;8.39;93.33
54540;SHT30;40438;52.992;18.604;2024-02-16T06:06:14;8.32;93.44
54540;SHT30;40438;52.992;18.604;2024-02-16T06:08:40;8.32;93.42
54540;SHT30;40438;52.992;18.604;2024-02-16T06:11:07;8.36;93.22
54540;SHT30;40438;52.992;18.604;2024-02-16T06:13:33;8.39;93.26
54540;SHT30;40438;52.992;18.604;2024-02-16T06:15:59;8.36;93.17
54540;SHT30;40438;52.992;18.604;2024-02-16T06:18:25;8.32;93.21
54540;SHT30;40438;52.992;18.604;2024-02-16T06:20:52;8.35;93.31
54540;SHT30;40438;52.992;18.604;2024-02-16T06:23:17;8.29;93.26
54540;SHT30;40438;52.992;18.604;2024-02-16T06:25:43;8.27;93.32
54540;SHT30;40438;52.992;18.604;2024-02-16T06:28:09;8.28;93.30
54540;SHT30;40438;52.992;18.604;2024-02-16T06:30:34;8.32;93.25
54540;SHT30;40438;52.992;18.604;2024-02-16T06:33:00;8.29;93.30
54540;SHT30;40438;52.992;18.604;2024-02-16T06:35:26;8.24;93.37
54540;SHT30;40438;52.992;18.604;2024-02-16T06:37:53;8.24;93.39
54540;SHT30;40438;52.992;18.604;2024-02-16T06:40:19;8.29;93.32
54540;SHT30;40438;52.992;18.604;2024-02-16T06:42:45;8.31;93.14
54540;SHT30;40438;52.992;18.604;2024-02-16T06:45:10;8.28;93.15
54540;SHT30;40438;52.992;18.604;2024-02-16T06:47:36;8.27;93.24
54540;SHT30;40438;52.992;18.604;2024-02-16T06:50:02;8.27;93.26
54540;SHT30;40438;52.992;18.604;2024-02-16T06:52:28;8.25;93.42
54540;SHT30;40438;52.992;18.604;2024-02-16T06:54:55;8.28;93.35
54540;SHT30;40438;52.992;18.604;2024-02-16T06:57:21;8.32;93.25
54540;SHT30;40438;52.992;18.604;2024-02-16T06:59:46;8.29;93.25
54540;SHT30;40438;52.992;18.604;2024-02-16T07:02:12;8.34;93.10
54540;SHT30;40438;52.992;18.604;2024-02-16T07:04:40;8.31;93.05
54540;SHT30;40438;52.992;18.604;2024-02-16T07:07:05;8.32;93.03
54540;SHT30;40438;52.992;18.604;2024-02-16T07:09:31;8.32;92.95
54540;SHT30;40438;52.992;18.604;2024-02-16T07:11:58;8.46;92.53
54540;SHT30;40438;52.992;18.604;2024-02-16T07:14:24;8.49;92.44
54540;SHT30;40438;52.992;18.604;2024-02-16T07:16:50;8.53;92.47
54540;SHT30;40438;52.992;18.604;2024-02-16T07:19:15;8.67;92.35
54540;SHT30;40438;52.992;18.604;2024-02-16T07:21:41;8.81;92.05
54540;SHT30;40438;52.992;18.604;2024-02-16T07:24:07;9.01;91.34
54540;SHT30;40438;52.992;18.604;2024-02-16T07:26:33;9.16;90.95
54540;SHT30;40438;52.992;18.604;2024-02-16T07:29:00;9.37;90.11
54540;SHT30;40438;52.992;18.604;2024-02-16T07:31:30;9.65;88.96
54540;SHT30;40438;52.992;18.604;2024-02-16T07:33:55;9.78;88.75
54540;SHT30;40438;52.992;18.604;2024-02-16T07:36:21;9.79;88.65
54540;SHT30;40438;52.992;18.604;2024-02-16T07:38:47;9.78;88.04
54540;SHT30;40438;52.992;18.604;2024-02-16T07:41:13;9.83;87.33
54540;SHT30;40438;52.992;18.604;2024-02-16T07:43:38;9.75;87.77
54540;SHT30;40438;52.992;18.604;2024-02-16T07:46:05;9.62;88.37
54540;SHT30;40438;52.992;18.604;2024-02-16T07:48:31;9.62;88.36
54540;SHT30;40438;52.992;18.604;2024-02-16T07:50:57;9.58;88.86
54540;SHT30;40438;52.992;18.604;2024-02-16T07:53:23;9.46;88.69
54540;SHT30;40438;52.992;18.604;2024-02-16T07:55:49;9.44;88.80
54540;SHT30;40438;52.992;18.604;2024-02-16T07:58:14;9.39;88.84
54540;SHT30;40438;52.992;18.604;2024-02-16T08:00:40;9.30;89.42
54540;SHT30;40438;52.992;18.604;2024-02-16T08:03:07;9.30;89.21
54540;SHT30;40438;52.992;18.604;2024-02-16T08:05:33;9.28;89.51
54540;SHT30;40438;52.992;18.604;2024-02-16T08:07:59;9.23;89.52
54540;SHT30;40438;52.992;18.604;2024-02-16T08:10:25;9.27;89.43
54540;SHT30;40438;52.992;18.604;2024-02-16T08:12:50;9.20;89.74
54540;SHT30;40438;52.992;18.604;2024-02-16T08:15:16;9.18;90.06
54540;SHT30;40438;52.992;18.604;2024-02-16T08:17:42;9.17;89.95
54540;SHT30;40438;52.992;18.604;2024-02-16T08:20:10;9.17;90.10
54540;SHT30;40438;52.992;18.604;2024-02-16T08:22:36;9.27;89.88
54540;SHT30;40438;52.992;18.604;2024-02-16T08:25:01;9.18;89.97
54540;SHT30;40438;52.992;18.604;2024-02-16T08:27:27;9.24;90.01
54540;SHT30;40438;52.992;18.604;2024-02-16T08:29:53;9.30;89.83
54540;SHT30;40438;52.992;18.604;2024-02-16T08:32:19;9.35;89.34
54540;SHT30;40438;52.992;18.604;2024-02-16T08:34:45;9.34;89.25
54540;SHT30;40438;52.992;18.604;2024-02-16T08:37:12;9.35;89.34
54540;SHT30;40438;52.992;18.604;2024-02-16T08:39:38;9.38;89.43
54540;SHT30;40438;52.992;18.604;2024-02-16T08:42:04;9.39;89.52
54540;SHT30;40438;52.992;18.604;2024-02-16T08:44:30;9.39;89.50
54540;SHT30;40438;52.992;18.604;2024-02-16T08:46:55;9.41;89.56
54540;SHT30;40438;52.992;18.604;2024-02-16T08:49:21;9.48;89.31
54540;SHT30;40438;52.992;18.604;2024-02-16T08:51:47;9.52;89.40
54540;SHT30;40438;52.992;18.604;2024-02-16T08:54:14;9.56;89.12
54540;SHT30;40438;52.992;18.604;2024-02-16T08:56:40;9.58;88.92
54540;SHT30;40438;52.992;18.604;2024-02-16T08:59:06;9.62;88.94
54540;SHT30;40438;52.992;18.604;2024-02-16T09:01:32;9.70;88.96
54540;SHT30;40438;52.992;18.604;2024-02-16T09:03:57;9.82;88.69
54540;SHT30;40438;52.992;18.604;2024-02-16T09:06:23;9.95;88.11
54540;SHT30;40438;52.992;18.604;2024-02-16T09:08:49;10.10;87.82
54540;SHT30;40438;52.992;18.604;2024-02-16T09:11:16;10.21;87.87
54540;SHT30;40438;52.992;18.604;2024-02-16T09:13:42;10.45;87.08
54540;SHT30;40438;52.992;18.604;2024-02-16T09:16:07;10.68;86.39
54540;SHT30;40438;52.992;18.604;2024-02-16T09:18:33;11.03;85.40
54540;SHT30;40438;52.992;18.604;2024-02-16T09:20:59;11.39;83.71
54540;SHT30;40438;52.992;18.604;2024-02-16T09:23:25;11.81;81.69
54540;SHT30;40438;52.992;18.604;2024-02-16T09:25:51;12.12;80.62
54540;SHT30;40438;52.992;18.604;2024-02-16T09:28:18;12.44;80.02
54540;SHT30;40438;52.992;18.604;2024-02-16T09:30:44;12.59;77.67
54540;SHT30;40438;52.992;18.604;2024-02-16T09:33:10;12.75;78.34
54540;SHT30;40438;52.992;18.604;2024-02-16T09:35:36;12.97;77.99
54540;SHT30;40438;52.992;18.604;2024-02-16T09:38:02;13.32;76.87
54540;SHT30;40438;52.992;18.604;2024-02-16T09:40:27;13.49;75.68
54540;SHT30;40438;52.992;18.604;2024-02-16T09:42:53;13.69;74.88
54540;SHT30;40438;52.992;18.604;2024-02-16T09:45:20;13.69;73.68
54540;SHT30;40438;52.992;18.604;2024-02-16T09:47:46;13.84;73.44
54540;SHT30;40438;52.992;18.604;2024-02-16T09:50:12;13.87;73.79
54540;SHT30;40438;52.992;18.604;2024-02-16T09:52:39;13.97;73.63
54540;SHT30;40438;52.992;18.604;2024-02-16T09:55:07;14.14;73.11
54540;SHT30;40438;52.992;18.604;2024-02-16T09:57:35;14.05;73.61
54540;SHT30;40438;52.992;18.604;2024-02-16T10:00:01;14.21;73.09
54540;SHT30;40438;52.992;18.604;2024-02-16T10:02:40;14.18;72.14
54540;SHT30;40438;52.992;18.604;2024-02-16T10:05:11;14.22;71.94
54540;SHT30;40438;52.992;18.604;2024-02-16T10:07:37;14.21;72.17
54540;SHT30;40438;52.992;18.604;2024-02-16T10:10:03;13.95;72.59
54540;SHT30;40438;52.992;18.604;2024-02-16T10:12:29;13.86;72.74
54540;SHT30;40438;52.992;18.604;2024-02-16T10:14:54;13.53;73.99
54540;SHT30;40438;52.992;18.604;2024-02-16T10:17:20;13.71;73.58
54540;SHT30;40438;52.992;18.604;2024-02-16T10:19:56;13.86;73.28
54540;SHT30;40438;52.992;18.604;2024-02-16T10:22:22;13.90;73.50
54540;SHT30;40438;52.992;18.604;2024-02-16T10:24:48;14.17;72.26
54540;SHT30;40438;52.992;18.604;2024-02-16T10:27:14;14.31;71.61
54540;SHT30;40438;52.992;18.604;2024-02-16T10:29:42;14.35;71.66
54540;SHT30;40438;52.992;18.604;2024-02-16T10:32:09;14.42;70.65
54540;SHT30;40438;52.992;18.604;2024-02-16T10:34:36;14.45;71.04
54540;SHT30;40438;52.992;18.604;2024-02-16T10:37:06;14.41;71.12
54540;SHT30;40438;52.992;18.604;2024-02-16T10:39:32;14.51;71.62
54540;SHT30;40438;52.992;18.604;2024-02-16T10:41:58;14.56;70.42
54540;SHT30;40438;52.992;18.604;2024-02-16T10:44:27;14.59;70.98
54540;SHT30;40438;52.992;18.604;2024-02-16T10:46:53;14.56;70.80
54540;SHT30;40438;52.992;18.604;2024-02-16T10:49:20;14.53;70.84
54540;SHT30;40438;52.992;18.604;2024-02-16T10:51:48;14.52;71.49
54540;SHT30;40438;52.992;18.604;2024-02-16T10:54:18;14.68;71.52
54540;SHT30;40438;52.992;18.604;2024-02-16T10:56:45;14.69;70.83
54540;SHT30;40438;52.992;18.604;2024-02-16T10:59:11;14.86;70.89
54540;SHT30;40438;52.992;18.604;2024-02-16T11:01:37;15.01;70.03
54540;SHT30;40438;52.992;18.604;2024-02-16T11:04:05;15.03;69.41
54540;SHT30;40438;52.992;18.604;2024-02-16T11:06:30;15.07;68.81
54540;SHT30;40438;52.992;18.604;2024-02-16T11:09:02;15.04;68.43
54540;SHT30;40438;52.992;18.604;2024-02-16T11:11:29;15.00;69.26
54540;SHT30;40438;52.992;18.604;2024-02-16T11:13:55;15.04;68.57
54540;SHT30;40438;52.992;18.604;2024-02-16T11:16:21;15.03;68.73
54540;SHT30;40438;52.992;18.604;2024-02-16T11:18:47;15.11;68.60
54540;SHT30;40438;52.992;18.604;2024-02-16T11:21:14;15.22;68.62
54540;SHT30;40438;52.992;18.604;2024-02-16T11:23:40;15.18;68.58
54540;SHT30;40438;52.992;18.604;2024-02-16T11:26:10;15.15;68.72
54540;SHT30;40438;52.992;18.604;2024-02-16T11:28:39;15.30;68.88
54540;SHT30;40438;52.992;18.604;2024-02-16T11:31:05;15.44;68.27
54540;SHT30;40438;52.992;18.604;2024-02-16T11:33:31;15.59;68.20
54540;SHT30;40438;52.992;18.604;2024-02-16T11:35:58;15.58;67.74
54540;SHT30;40438;52.992;18.604;2024-02-16T11:38:24;15.57;67.33
54540;SHT30;40438;52.992;18.604;2024-02-16T11:40:55;15.55;67.59
54540;SHT30;40438;52.992;18.604;2024-02-16T11:43:21;15.62;67.17
54540;SHT30;40438;52.992;18.604;2024-02-16T11:45:48;15.47;67.64
54540;SHT30;40438;52.992;18.604;2024-02-16T11:48:19;15.54;67.28
54540;SHT30;40438;52.992;18.604;2024-02-16T11:50:45;15.48;67.44
54540;SHT30;40438;52.992;18.604;2024-02-16T11:53:15;15.42;68.52
54540;SHT30;40438;52.992;18.604;2024-02-16T11:55:46;15.52;67.72
54540;SHT30;40438;52.992;18.604;2024-02-16T11:58:12;15.55;67.90
54540;SHT30;40438;52.992;18.604;2024-02-16T12:00:39;15.63;67.31
54540;SHT30;40438;52.992;18.604;2024-02-16T12:03:07;15.63;67.46
54540;SHT30;40438;52.992;18.604;2024-02-16T12:05:33;15.73;67.50
54540;SHT30;40438;52.992;18.604;2024-02-16T12:07:58;15.91;67.41
54540;SHT30;40438;52.992;18.604;2024-02-16T12:10:25;15.93;66.74
54540;SHT30;40438;52.992;18.604;2024-02-16T12:12:51;16.03;67.00
54540;SHT30;40438;52.992;18.604;2024-02-16T12:15:17;16.05;66.62
54540;SHT30;40438;52.992;18.604;2024-02-16T12:17:43;15.99;66.07
54540;SHT30;40438;52.992;18.604;2024-02-16T12:20:12;16.07;66.64
54540;SHT30;40438;52.992;18.604;2024-02-16T12:22:38;16.20;66.39
54540;SHT30;40438;52.992;18.604;2024-02-16T12:25:04;16.30;66.46
54540;SHT30;40438;52.992;18.604;2024-02-16T12:27:30;16.61;65.75
54540;SHT30;40438;52.992;18.604;2024-02-16T12:29:56;16.68;64.88
54540;SHT30;40438;52.992;18.604;2024-02-16T12:32:22;16.76;64.83
54540;SHT30;40438;52.992;18.604;2024-02-16T12:34:49;16.72;64.01
54540;SHT30;40438;52.992;18.604;2024-02-16T12:37:16;16.57;64.18
54540;SHT30;40438;52.992;18.604;2024-02-16T12:39:42;16.41;64.60
54540;SHT30;40438;52.992;18.604;2024-02-16T12:42:07;16.27;65.19
54540;SHT30;40438;52.992;18.604;2024-02-16T12:44:33;16.14;65.47
54540;SHT30;40438;52.992;18.604;2024-02-16T12:46:59;15.99;65.80
54540;SHT30;40438;52.992;18.604;2024-02-16T12:49:24;16.09;66.03
54540;SHT30;40438;52.992;18.604;2024-02-16T12:51:51;16.21;65.80
54540;SHT30;40438;52.992;18.604;2024-02-16T12:54:18;16.30;65.69
54540;SHT30;40438;52.992;18.604;2024-02-16T12:56:43;16.36;64.86
54540;SHT30;40438;52.992;18.604;2024-02-16T12:59:09;16.37;64.23
54540;SHT30;40438;52.992;18.604;2024-02-16T13:01:35;16.27;64.94
54540;SHT30;40438;52.992;18.604;2024-02-16T13:04:01;16.12;65.29
54540;SHT30;40438;52.992;18.604;2024-02-16T13:06:27;16.10;64.99
54540;SHT30;40438;52.992;18.604;2024-02-16T13:08:52;16.03;65.18
54540;SHT30;40438;52.992;18.604;2024-02-16T13:11:19;15.93;65.27
54540;SHT30;40438;52.992;18.604;2024-02-16T13:13:45;15.85;65.07
54540;SHT30;40438;52.992;18.604;2024-02-16T13:16:12;15.86;65.11
54540;SHT30;40438;52.992;18.604;2024-02-16T13:18:38;15.79;65.44
54540;SHT30;40438;52.992;18.604;2024-02-16T13:21:04;15.86;65.34
54540;SHT30;40438;52.992;18.604;2024-02-16T13:23:30;15.83;66.01
54540;SHT30;40438;52.992;18.604;2024-02-16T13:25:55;15.80;66.06
54540;SHT30;40438;52.992;18.604;2024-02-16T13:28:22;15.80;65.71
54540;SHT30;40438;52.992;18.604;2024-02-16T13:30:48;15.75;66.12
54540;SHT30;40438;52.992;18.604;2024-02-16T13:33:14;15.68;65.75
54540;SHT30;40438;52.992;18.604;2024-02-16T13:35:40;15.59;65.90
54540;SHT30;40438;52.992;18.604;2024-02-16T13:38:05;15.58;66.15
54540;SHT30;40438;52.992;18.604;2024-02-16T13:40:31;15.55;66.51
54540;SHT30;40438;52.992;18.604;2024-02-16T13:42:57;15.61;66.67
54540;SHT30;40438;52.992;18.604;2024-02-16T13:45:24;15.62;66.64
54540;SHT30;40438;52.992;18.604;2024-02-16T13:47:50;15.54;66.56
54540;SHT30;40438;52.992;18.604;2024-02-16T13:50:15;15.45;66.69
54540;SHT30;40438;52.992;18.604;2024-02-16T13:52:41;15.37;67.17
54540;SHT30;40438;52.992;18.604;2024-02-16T13:55:07;15.37;67.13
54540;SHT30;40438;52.992;18.604;2024-02-16T13:57:33;15.37;67.13
54540;SHT30;40438;52.992;18.604;2024-02-16T13:59:59;15.28;67.58
54540;SHT30;40438;52.992;18.604;2024-02-16T14:02:26;15.28;67.51
54540;SHT30;40438;52.992;18.604;2024-02-16T14:04:52;15.26;67.42
54540;SHT30;40438;52.992;18.604;2024-02-16T14:07:18;15.24;67.44
54540;SHT30;40438;52.992;18.604;2024-02-16T14:09:44;15.26;67.49
54540;SHT30;40438;52.992;18.604;2024-02-16T14:12:09;15.39;67.26
54540;SHT30;40438;52.992;18.604;2024-02-16T14:14:35;15.45;67.25
54540;SHT30;40438;52.992;18.604;2024-02-16T14:17:01;15.45;67.30
54540;SHT30;40438;52.992;18.604;2024-02-16T14:19:28;15.55;66.67
54540;SHT30;40438;52.992;18.604;2024-02-16T14:21:57;15.58;66.73
54540;SHT30;40438;52.992;18.604;2024-02-16T14:24:22;15.52;66.76
54540;SHT30;40438;52.992;18.604;2024-02-16T14:26:48;15.42;67.06
54540;SHT30;40438;52.992;18.604;2024-02-16T14:29:14;15.47;67.06
54540;SHT30;40438;52.992;18.604;2024-02-16T14:31:40;15.54;66.74
54540;SHT30;40438;52.992;18.604;2024-02-16T14:34:05;15.54;67.04
54540;SHT30;40438;52.992;18.604;2024-02-16T14:36:32;15.48;66.43
54540;SHT30;40438;52.992;18.604;2024-02-16T14:38:58;15.49;66.83
54540;SHT30;40438;52.992;18.604;2024-02-16T14:41:24;15.47;67.05
54540;SHT30;40438;52.992;18.604;2024-02-16T14:43:50;15.32;66.91
54540;SHT30;40438;52.992;18.604;2024-02-16T14:46:15;15.17;67.93
54540;SHT30;40438;52.992;18.604;2024-02-16T14:48:41;15.04;68.14
54540;SHT30;40438;52.992;18.604;2024-02-16T14:51:07;14.93;68.74
54540;SHT30;40438;52.992;18.604;2024-02-16T14:53:34;14.80;68.57
54540;SHT30;40438;52.992;18.604;2024-02-16T14:56:00;14.46;69.40
54540;SHT30;40438;52.992;18.604;2024-02-16T14:58:27;14.41;69.84
54540;SHT30;40438;52.992;18.604;2024-02-16T15:00:53;14.19;70.53
54540;SHT30;40438;52.992;18.604;2024-02-16T15:03:18;14.14;70.71
54540;SHT30;40438;52.992;18.604;2024-02-16T15:05:44;14.11;70.68
54540;SHT30;40438;52.992;18.604;2024-02-16T15:08:10;13.95;71.09
54540;SHT30;40438;52.992;18.604;2024-02-16T15:10:37;13.87;71.60
54540;SHT30;40438;52.992;18.604;2024-02-16T15:13:03;13.89;71.54
54540;SHT30;40438;52.992;18.604;2024-02-16T15:15:29;13.74;72.04
54540;SHT30;40438;52.992;18.604;2024-02-16T15:17:55;13.67;72.14